Time;durP1;ratioP1;P1;durP2;ratioP2;P2;SDS_P1;SDS_P2;PMS_P1;PMS_P2;Temp;Humidity;BMP_temperature;BMP_pressure;BME280_temperature;BME280_humidity;BME280_pressure;Samples;Min_cycle;Max_cycle;Signal;HPM_P1;HPM_P2
2020/12/03 00:01:06;;;;;;;50.53;21.53;;;0.00;99.90;;;;;;5003695;28;20490;-64
2020/12/03 00:03:37;;;;;;;47.90;20.80;;;0.00;99.90;;;;;;5003432;28;20050;-63
2020/12/03 00:06:17;;;;;;;47.27;19.77;;;0.10;99.90;;;;;;5003818;28;20056;-64
2020/12/03 00:08:48;;;;;;;47.10;20.93;;;0.00;99.90;;;;;;5007236;28;20064;-64
2020/12/03 00:11:15;;;;;;;46.93;20.60;;;0.00;99.90;;;;;;5007184;28;20456;-64
2020/12/03 00:13:42;;;;;;;50.27;20.30;;;0.00;99.90;;;;;;5006484;28;20057;-65
2020/12/03 00:16:09;;;;;;;47.90;20.10;;;0.10;99.90;;;;;;5006814;28;20073;-64
2020/12/03 00:18:37;;;;;;;47.83;21.10;;;0.10;99.90;;;;;;5004651;28;20046;-64
2020/12/03 00:21:08;;;;;;;48.23;21.07;;;0.00;99.90;;;;;;5004512;28;20521;-64
2020/12/03 00:23:36;;;;;;;45.60;19.73;;;0.10;99.90;;;;;;5005056;28;20046;-64
2020/12/03 00:26:03;;;;;;;48.87;21.17;;;0.20;99.90;;;;;;5006274;28;20053;-64
2020/12/03 00:28:31;;;;;;;47.80;20.63;;;-0.10;99.90;;;;;;5007460;28;20390;-63
2020/12/03 00:30:58;;;;;;;46.70;20.87;;;-0.10;99.90;;;;;;5004151;28;20045;-63
2020/12/03 00:33:25;;;;;;;48.60;21.30;;;0.00;99.90;;;;;;5005479;28;20042;-64
2020/12/03 00:35:53;;;;;;;49.07;20.60;;;-0.10;99.90;;;;;;5006440;28;20046;-65
2020/12/03 00:38:21;;;;;;;44.93;20.27;;;-0.10;99.90;;;;;;5006377;28;20072;-65
2020/12/03 00:40:48;;;;;;;49.57;21.07;;;-0.10;99.90;;;;;;5004426;28;20053;-65
2020/12/03 00:43:15;;;;;;;43.90;19.73;;;0.00;99.90;;;;;;5005893;28;20049;-64
2020/12/03 00:45:42;;;;;;;50.10;21.53;;;0.00;99.90;;;;;;5006662;28;20464;-64
2020/12/03 00:48:09;;;;;;;52.17;22.27;;;0.20;99.90;;;;;;5005742;28;20422;-65
2020/12/03 00:50:36;;;;;;;48.77;20.40;;;0.10;99.90;;;;;;5014248;28;20046;-65
2020/12/03 00:53:04;;;;;;;47.27;21.37;;;0.20;99.90;;;;;;5015112;28;20068;-64
2020/12/03 00:55:30;;;;;;;48.23;21.03;;;0.10;99.90;;;;;;5016556;28;20054;-65
2020/12/03 00:57:57;;;;;;;47.97;20.73;;;0.20;99.90;;;;;;5026120;28;20417;-64
2020/12/03 01:00:24;;;;;;;48.87;21.73;;;0.20;99.90;;;;;;5026176;28;20076;-65
2020/12/03 01:02:51;;;;;;;47.13;20.47;;;0.20;99.90;;;;;;5027193;28;20053;-65
2020/12/03 01:05:18;;;;;;;47.07;20.70;;;0.10;99.90;;;;;;5027207;28;20042;-65
2020/12/03 01:07:45;;;;;;;46.23;21.50;;;0.20;99.90;;;;;;5025276;28;20046;-64
2020/12/03 01:10:16;;;;;;;43.73;19.53;;;0.10;99.90;;;;;;5027280;28;20042;-64
2020/12/03 01:12:42;;;;;;;45.73;20.80;;;0.30;99.90;;;;;;5023684;28;20090;-65
2020/12/03 01:15:10;;;;;;;47.90;19.60;;;0.20;99.90;;;;;;5015232;28;20486;-65
2020/12/03 01:17:37;;;;;;;50.73;21.57;;;0.10;99.90;;;;;;5018899;27;20041;-65
2020/12/03 01:20:07;;;;;;;48.77;21.40;;;0.10;99.90;;;;;;5019409;28;20098;-64
2020/12/03 01:22:33;;;;;;;50.57;21.10;;;0.10;99.90;;;;;;5017029;28;20510;-64
2020/12/03 01:25:00;;;;;;;48.17;21.97;;;0.10;99.90;;;;;;5020159;28;20494;-65
2020/12/03 01:27:28;;;;;;;51.53;22.17;;;0.10;99.90;;;;;;5019226;28;20405;-65
2020/12/03 01:29:54;;;;;;;48.03;21.27;;;0.00;99.90;;;;;;5017561;28;20049;-65
2020/12/03 01:32:27;;;;;;;46.27;20.83;;;0.00;99.90;;;;;;5021342;28;20049;-65
2020/12/03 01:34:53;;;;;;;44.53;20.37;;;0.00;99.90;;;;;;5022650;28;20050;-64
2020/12/03 01:37:20;;;;;;;52.47;21.90;;;-0.10;99.90;;;;;;5021358;28;20053;-64
2020/12/03 01:39:47;;;;;;;52.97;22.40;;;-0.10;99.90;;;;;;5019821;28;20517;-64
2020/12/03 01:42:15;;;;;;;47.40;21.57;;;-0.10;99.90;;;;;;5016069;28;20061;-64
2020/12/03 01:44:45;;;;;;;55.90;21.83;;;0.00;99.90;;;;;;5019852;28;20060;-64
2020/12/03 01:47:21;;;;;;;52.00;22.57;;;-0.20;99.90;;;;;;5019232;28;20050;-64
2020/12/03 01:49:49;;;;;;;48.20;21.95;;;-0.20;99.90;;;;;;5018550;28;20494;-65
2020/12/03 01:52:16;;;;;;;50.27;21.87;;;-0.20;99.90;;;;;;5017433;28;20053;-65
2020/12/03 01:54:43;;;;;;;44.47;20.73;;;-0.20;99.90;;;;;;5017493;28;20046;-65
2020/12/03 01:57:41;;;;;;;49.80;22.47;;;-0.20;99.90;;;;;;5018638;28;20052;-65
2020/12/03 02:00:11;;;;;;;55.58;23.30;;;-0.20;99.90;;;;;;5036968;28;20146;-65
2020/12/03 02:02:37;;;;;;;52.80;22.30;;;-0.10;99.90;;;;;;5019030;28;20041;-65
2020/12/03 02:05:13;;;;;;;51.97;21.93;;;-0.10;99.90;;;;;;5017593;28;20057;-63
2020/12/03 02:07:40;;;;;;;49.15;21.67;;;0.00;99.90;;;;;;5015277;28;20057;-67
2020/12/03 02:10:07;;;;;;;54.23;23.13;;;0.10;99.90;;;;;;5016938;28;20045;-65
2020/12/03 02:12:34;;;;;;;58.87;22.93;;;0.10;99.90;;;;;;5019333;28;20057;-65
2020/12/03 02:15:01;;;;;;;50.07;21.77;;;0.10;99.90;;;;;;5015457;28;20045;-66
2020/12/03 02:17:29;;;;;;;50.73;22.47;;;0.00;99.90;;;;;;5017888;28;20054;-65
2020/12/03 02:19:57;;;;;;;50.67;22.87;;;-0.20;99.90;;;;;;5019704;28;20053;-65
2020/12/03 02:22:24;;;;;;;54.07;24.67;;;-0.10;99.90;;;;;;5018215;28;20053;-65
2020/12/03 02:24:51;;;;;;;50.43;23.83;;;-0.10;99.90;;;;;;5019245;28;20054;-65
2020/12/03 02:27:24;;;;;;;52.27;22.77;;;0.10;99.90;;;;;;5017822;28;20143;-65
2020/12/03 02:29:51;;;;;;;49.07;21.77;;;0.00;99.90;;;;;;5017458;28;20061;-64
2020/12/03 02:32:18;;;;;;;49.60;22.17;;;0.00;99.90;;;;;;5018850;28;20050;-65
2020/12/03 02:34:45;;;;;;;56.70;23.93;;;-0.10;99.90;;;;;;5018189;28;20112;-65
2020/12/03 02:37:13;;;;;;;51.63;23.87;;;-0.10;99.90;;;;;;5019263;28;20498;-65
2020/12/03 02:39:40;;;;;;;50.40;22.60;;;-0.20;99.90;;;;;;5013625;28;20046;-65
2020/12/03 02:42:09;;;;;;;53.20;23.70;;;-0.10;99.90;;;;;;5014930;28;20058;-63
2020/12/03 02:44:38;;;;;;;53.10;22.40;;;0.00;99.90;;;;;;5008769;28;20042;-65
2020/12/03 02:47:05;;;;;;;51.17;21.17;;;0.00;99.90;;;;;;5008100;28;20463;-65
2020/12/03 02:49:31;;;;;;;52.10;23.37;;;-0.10;99.90;;;;;;5008794;28;20419;-65
2020/12/03 02:51:58;;;;;;;53.43;21.57;;;-0.10;99.90;;;;;;5007316;28;20534;-65
2020/12/03 02:54:26;;;;;;;51.53;22.13;;;-0.10;99.90;;;;;;5008821;28;20046;-65
2020/12/03 02:56:52;;;;;;;50.40;21.10;;;-0.20;99.90;;;;;;5008861;28;20072;-65
2020/12/03 02:59:19;;;;;;;50.83;21.60;;;-0.10;99.90;;;;;;5007761;28;20411;-65
2020/12/03 03:01:45;;;;;;;50.60;21.33;;;-0.30;99.90;;;;;;5008151;28;20498;-64
2020/12/03 03:04:12;;;;;;;49.00;22.50;;;-0.30;99.90;;;;;;5007717;28;20050;-65
2020/12/03 03:06:43;;;;;;;52.00;22.40;;;-0.20;99.90;;;;;;5008658;28;20494;-65
2020/12/03 03:09:09;;;;;;;53.00;22.90;;;-0.10;99.90;;;;;;5007065;28;20041;-65
2020/12/03 03:11:37;;;;;;;53.97;22.87;;;-0.10;99.90;;;;;;5005713;28;20067;-65
2020/12/03 03:14:04;;;;;;;53.40;22.47;;;-0.20;99.90;;;;;;5008129;28;20057;-64
2020/12/03 03:16:32;;;;;;;55.90;23.40;;;-0.20;99.90;;;;;;5007726;28;20054;-65
2020/12/03 03:18:58;;;;;;;55.83;23.97;;;-0.20;99.90;;;;;;5008131;28;20083;-65
2020/12/03 03:21:25;;;;;;;53.27;23.37;;;-0.30;99.90;;;;;;5006316;28;20045;-65
2020/12/03 03:23:52;;;;;;;53.30;23.37;;;-0.30;99.90;;;;;;5008011;28;20046;-65
2020/12/03 03:26:19;;;;;;;55.03;22.33;;;-0.40;99.90;;;;;;5007115;28;20056;-65
2020/12/03 03:28:47;;;;;;;57.40;23.30;;;-0.30;99.90;;;;;;5008097;28;20200;-64
2020/12/03 03:31:14;;;;;;;54.57;23.87;;;-0.40;99.90;;;;;;5007630;28;20052;-65
2020/12/03 03:33:41;;;;;;;54.87;24.07;;;-0.20;99.90;;;;;;5005375;28;20056;-65
2020/12/03 03:36:07;;;;;;;58.00;23.80;;;-0.20;99.90;;;;;;5011810;28;20050;-64
2020/12/03 03:38:35;;;;;;;55.50;23.03;;;-0.20;99.90;;;;;;5004352;28;20127;-65
2020/12/03 03:41:01;;;;;;;49.83;21.73;;;-0.30;99.90;;;;;;5006069;28;20111;-65
2020/12/03 03:43:31;;;;;;;52.40;22.30;;;-0.40;99.90;;;;;;5007650;28;20055;-65
2020/12/03 03:45:59;;;;;;;54.77;23.27;;;-0.30;99.90;;;;;;5006673;28;20494;-65
2020/12/03 03:48:25;;;;;;;55.67;23.37;;;-0.40;99.90;;;;;;5007827;28;20068;-65
2020/12/03 03:50:53;;;;;;;55.97;24.30;;;-0.30;99.90;;;;;;5006370;28;20054;-65
2020/12/03 03:53:19;;;;;;;60.97;23.90;;;-0.30;99.90;;;;;;5007458;28;20064;-64
2020/12/03 03:55:46;;;;;;;57.33;23.67;;;-0.20;99.90;;;;;;5004661;28;20530;-65
2020/12/03 03:58:13;;;;;;;50.90;22.57;;;-0.20;99.90;;;;;;5005083;28;20050;-65
2020/12/03 04:00:42;;;;;;;54.43;21.50;;;-0.40;99.90;;;;;;5007661;28;20084;-65
2020/12/03 04:03:13;;;;;;;60.40;24.73;;;-0.40;99.90;;;;;;5006081;28;20435;-65
2020/12/03 04:05:40;;;;;;;52.60;23.20;;;-0.30;99.90;;;;;;5007739;28;20138;-65
2020/12/03 04:08:07;;;;;;;59.03;24.07;;;-0.40;99.90;;;;;;5006509;28;20155;-65
2020/12/03 04:10:34;;;;;;;62.10;24.57;;;-0.20;99.90;;;;;;5006863;28;20502;-65
2020/12/03 04:13:00;;;;;;;57.97;23.93;;;-0.30;99.90;;;;;;5007081;28;20061;-65
2020/12/03 04:15:27;;;;;;;53.20;22.47;;;-0.20;99.90;;;;;;5007304;28;20058;-64
2020/12/03 04:17:54;;;;;;;58.53;23.70;;;-0.30;99.90;;;;;;5007798;28;20425;-65
2020/12/03 04:20:22;;;;;;;58.40;24.50;;;-0.20;99.90;;;;;;5005919;28;20061;-65
2020/12/03 04:22:48;;;;;;;63.77;25.70;;;-0.20;99.90;;;;;;5007746;28;20056;-65
2020/12/03 04:25:15;;;;;;;62.13;25.67;;;-0.10;99.90;;;;;;5006523;28;20060;-64
2020/12/03 04:27:42;;;;;;;61.00;25.30;;;-0.20;99.90;;;;;;5006646;28;20046;-65
2020/12/03 04:30:10;;;;;;;57.90;25.27;;;-0.30;99.90;;;;;;5007097;28;20056;-65
2020/12/03 04:32:38;;;;;;;59.77;25.47;;;-0.30;99.90;;;;;;5004615;28;20050;-65
2020/12/03 04:35:06;;;;;;;61.83;26.50;;;-0.30;99.90;;;;;;5007394;28;20045;-65
2020/12/03 04:37:33;;;;;;;66.40;25.87;;;-0.20;99.90;;;;;;5008473;28;20057;-65
2020/12/03 04:40:00;;;;;;;65.33;25.30;;;-0.20;99.90;;;;;;5012288;28;20125;-65
2020/12/03 04:42:30;;;;;;;65.00;27.20;;;-0.30;99.90;;;;;;5012013;28;20053;-65
2020/12/03 04:45:02;;;;;;;58.97;23.37;;;-0.30;99.90;;;;;;5007545;28;20046;-65
2020/12/03 04:47:50;;;;;;;63.20;26.40;;;-0.20;99.90;;;;;;5007163;28;20050;-66
2020/12/03 04:50:26;;;;;;;63.30;27.30;;;-0.30;99.90;;;;;;5005468;28;20449;-65
2020/12/03 04:53:08;;;;;;;59.83;25.73;;;-0.30;99.90;;;;;;5006909;28;20046;-65
2020/12/03 04:55:49;;;;;;;66.70;27.00;;;-0.30;99.90;;;;;;5005800;28;20456;-65
2020/12/03 04:58:31;;;;;;;62.27;25.97;;;-0.30;99.90;;;;;;5007225;28;20502;-65
2020/12/03 05:01:04;;;;;;;65.07;24.33;;;-0.40;99.90;;;;;;5006319;28;20116;-65
2020/12/03 05:03:59;;;;;;;62.07;25.60;;;-0.40;99.90;;;;;;5007038;28;20054;-65
2020/12/03 05:06:48;;;;;;;58.17;23.37;;;-0.40;99.90;;;;;;5006101;28;20619;-64
2020/12/03 05:09:25;;;;;;;64.20;25.27;;;-0.50;99.90;;;;;;5006654;28;20050;-64
2020/12/03 05:11:56;;;;;;;68.97;25.13;;;-0.50;99.90;;;;;;5008509;28;20100;-65
2020/12/03 05:14:36;;;;;;;68.27;25.57;;;-0.50;99.90;;;;;;5007748;28;20050;-64
2020/12/03 05:17:18;;;;;;;66.20;27.73;;;-0.50;99.90;;;;;;5006314;28;20050;-65
2020/12/03 05:19:50;;;;;;;61.20;23.40;;;-0.60;99.90;;;;;;5006526;28;20046;-64
2020/12/03 05:22:20;;;;;;;74.47;26.90;;;-0.60;99.90;;;;;;5006919;28;20057;-65
2020/12/03 05:24:48;;;;;;;63.23;24.57;;;-0.60;99.90;;;;;;5005823;28;20053;-65
2020/12/03 05:27:21;;;;;;;65.33;25.93;;;-0.50;99.90;;;;;;5006668;28;20050;-65
2020/12/03 05:29:48;;;;;;;73.23;27.20;;;-0.50;99.90;;;;;;5006045;28;20123;-65
2020/12/03 05:32:15;;;;;;;68.27;25.87;;;-0.60;99.90;;;;;;5005620;28;20513;-65
2020/12/03 05:34:43;;;;;;;62.10;25.73;;;-0.60;99.90;;;;;;5008632;28;20053;-65
2020/12/03 05:37:13;;;;;;;69.27;28.30;;;-0.60;99.90;;;;;;5009942;28;20408;-65
2020/12/03 05:39:44;;;;;;;64.53;26.00;;;-0.50;99.90;;;;;;5006431;28;20410;-65
2020/12/03 05:42:15;;;;;;;76.43;28.27;;;-0.40;99.90;;;;;;5004978;28;20057;-65
2020/12/03 05:44:46;;;;;;;73.00;27.33;;;-0.50;99.90;;;;;;5009745;28;20531;-65
2020/12/03 05:47:21;;;;;;;62.60;26.50;;;-0.50;99.90;;;;;;5009083;28;20137;-64
2020/12/03 05:49:50;;;;;;;70.33;26.60;;;-0.50;99.90;;;;;;5010090;28;20052;-65
2020/12/03 05:52:19;;;;;;;64.43;25.20;;;-0.40;99.90;;;;;;5008907;28;20046;-65
2020/12/03 05:55:01;;;;;;;76.70;26.23;;;-0.40;99.90;;;;;;5008317;28;20053;-65
2020/12/03 05:57:32;;;;;;;62.30;24.13;;;-0.40;99.90;;;;;;5009548;28;20501;-65
2020/12/03 06:00:15;;;;;;;65.70;25.63;;;-0.40;99.90;;;;;;5005540;28;20407;-65
2020/12/03 06:02:52;;;;;;;74.37;27.87;;;-0.40;99.90;;;;;;5009036;28;20058;-64
2020/12/03 06:05:26;;;;;;;72.10;26.03;;;-0.50;99.90;;;;;;5006440;28;20058;-66
2020/12/03 06:08:02;;;;;;;72.07;26.27;;;-0.50;99.90;;;;;;4990189;28;20054;-66
2020/12/03 06:10:53;;;;;;;72.47;28.33;;;-0.50;99.90;;;;;;4989215;28;20050;-65
2020/12/03 06:13:42;;;;;;;71.47;26.30;;;-0.50;99.90;;;;;;5009629;28;20057;-65
2020/12/03 06:16:21;;;;;;;69.47;27.13;;;-0.40;99.90;;;;;;5008996;28;20053;-65
2020/12/03 06:18:58;;;;;;;69.07;26.70;;;-0.50;99.90;;;;;;5009915;28;20054;-65
2020/12/03 06:21:34;;;;;;;;;;;-0.40;99.90;;;;;;5008966;28;20050;-65
2020/12/03 06:24:20;;;;;;;68.70;24.00;;;-0.40;99.90;;;;;;5009685;28;20305;-65
2020/12/03 06:27:05;;;;;;;73.60;27.00;;;-0.30;99.90;;;;;;5009170;28;20057;-65
2020/12/03 06:29:57;;;;;;;70.67;26.07;;;-0.20;99.90;;;;;;5008312;28;20069;-65
2020/12/03 06:32:47;;;;;;;67.17;25.37;;;-0.10;99.90;;;;;;5009038;28;20053;-64
2020/12/03 06:35:36;;;;;;;61.27;24.17;;;-0.20;99.90;;;;;;5008737;28;20053;-65
2020/12/03 06:38:18;;;;;;;63.67;23.30;;;-0.20;99.90;;;;;;5006959;28;20482;-65
2020/12/03 06:40:54;;;;;;;65.37;23.93;;;-0.30;99.90;;;;;;5008086;28;20046;-65
2020/12/03 06:43:27;;;;;;;57.37;21.77;;;-0.30;99.90;;;;;;5008734;28;20046;-64
2020/12/03 06:46:22;;;;;;;64.57;25.37;;;-0.20;99.90;;;;;;5003779;28;20058;-64
2020/12/03 06:49:13;;;;;;;64.97;24.17;;;-0.20;99.90;;;;;;4996612;28;20081;-65
2020/12/03 06:52:23;;;;;;;62.20;25.80;;;-0.20;99.90;;;;;;5007073;28;20494;-65
2020/12/03 06:55:13;;;;;;;64.27;24.73;;;-0.20;99.90;;;;;;5004117;28;20072;-65
2020/12/03 07:00:58;;;;;;;;;;;-0.20;99.90;;;;;;5026577;22;20524;-65
2020/12/03 07:04:07;;;;;;;64.83;22.53;;;-0.20;99.90;;;;;;5017882;28;19976;-70
2020/12/03 07:07:04;;;;;;;66.50;25.70;;;-0.30;99.90;;;;;;5015700;28;20104;-67
2020/12/03 07:10:07;;;;;;;59.38;23.73;;;-0.20;99.90;;;;;;5014434;28;20049;-67
2020/12/03 07:15:58;;;;;;;65.23;23.17;;;-0.10;99.90;;;;;;4990608;28;20274;-66
2020/12/03 07:19:05;;;;;;;66.57;24.13;;;-0.10;99.90;;;;;;4994143;28;20061;-70
2020/12/03 07:21:49;;;;;;;64.57;24.93;;;-0.10;99.90;;;;;;4995360;28;20426;-66
2020/12/03 07:24:20;;;;;;;69.80;24.90;;;-0.10;99.90;;;;;;4996426;28;20054;-68
2020/12/03 07:27:35;;;;;;;70.70;26.60;;;-0.10;99.90;;;;;;4991142;28;20062;-68
2020/12/03 07:30:07;;;;;;;64.57;25.50;;;0.00;99.90;;;;;;4935747;28;20054;-68
2020/12/03 07:32:48;;;;;;;71.17;25.67;;;-0.10;99.90;;;;;;4999898;28;20438;-69
2020/12/03 07:35:34;;;;;;;59.87;24.10;;;0.00;99.90;;;;;;5001805;28;20054;-68
2020/12/03 07:38:11;;;;;;;63.27;24.33;;;0.00;99.90;;;;;;4999878;28;20047;-61
2020/12/03 07:40:38;;;;;;;62.83;25.43;;;0.10;99.90;;;;;;5002410;28;20058;-60
2020/12/03 07:43:14;;;;;;;55.83;22.93;;;0.20;99.90;;;;;;5001187;28;20056;-61
2020/12/03 07:45:44;;;;;;;55.00;22.83;;;0.10;99.90;;;;;;4992689;28;20058;-60
2020/12/03 07:48:23;;;;;;;69.93;26.63;;;0.20;99.90;;;;;;4989748;28;20056;-61
2020/12/03 07:51:12;;;;;;;61.10;23.37;;;0.20;99.90;;;;;;4974128;28;20050;-61
2020/12/03 07:53:39;;;;;;;61.90;23.83;;;0.10;99.90;;;;;;4990155;28;20061;-65
2020/12/03 07:56:31;;;;;;;64.00;25.70;;;0.10;99.90;;;;;;4990047;28;20050;-62
2020/12/03 07:59:29;;;;;;;67.87;24.97;;;0.00;99.90;;;;;;4978287;28;20077;-63
2020/12/03 08:01:57;;;;;;;69.00;24.83;;;0.00;99.90;;;;;;4982676;28;20065;-63
2020/12/03 08:04:31;;;;;;;58.03;24.47;;;0.10;99.90;;;;;;4990614;28;20425;-63
2020/12/03 08:07:34;;;;;;;66.00;25.17;;;0.00;99.90;;;;;;4990130;28;20054;-64
2020/12/03 08:10:02;;;;;;;62.80;25.47;;;0.10;99.90;;;;;;4986773;28;20491;-63
2020/12/03 08:12:30;;;;;;;63.93;23.97;;;0.10;99.90;;;;;;4986534;28;20060;-63
2020/12/03 08:14:59;;;;;;;63.63;24.23;;;-0.10;99.90;;;;;;4991026;28;20073;-64
2020/12/03 08:17:44;;;;;;;60.57;24.47;;;-0.10;99.90;;;;;;4988182;28;20058;-62
2020/12/03 08:20:40;;;;;;;62.00;23.30;;;-0.10;99.90;;;;;;4987369;28;20038;-66
2020/12/03 08:23:11;;;;;;;57.47;23.83;;;0.00;99.90;;;;;;4971856;28;20518;-66
2020/12/03 08:25:47;;;;;;;59.27;24.03;;;-0.10;99.90;;;;;;4975068;28;20054;-67
2020/12/03 08:28:24;;;;;;;65.40;24.60;;;0.00;99.90;;;;;;4991211;28;20058;-65
2020/12/03 08:30:53;;;;;;;57.17;23.30;;;-0.10;99.90;;;;;;4995198;28;20054;-64
2020/12/03 08:33:31;;;;;;;63.13;23.60;;;0.00;99.90;;;;;;4988842;28;20137;-65
2020/12/03 08:36:00;;;;;;;57.17;22.47;;;0.00;99.90;;;;;;4988776;28;20054;-66
2020/12/03 08:38:29;;;;;;;61.07;23.20;;;0.00;99.90;;;;;;4983833;28;20049;-64
2020/12/03 08:40:58;;;;;;;61.20;21.40;;;0.10;99.90;;;;;;4987899;28;20565;-66
2020/12/03 08:43:26;;;;;;;63.93;23.70;;;0.10;99.90;;;;;;4988368;28;20094;-65
2020/12/03 08:46:00;;;;;;;65.53;22.20;;;0.10;99.90;;;;;;4989121;28;20112;-65
2020/12/03 08:48:30;;;;;;;56.60;21.80;;;0.20;99.90;;;;;;4989521;28;20098;-64
2020/12/03 08:50:59;;;;;;;57.20;22.90;;;0.10;99.90;;;;;;4989360;28;20093;-65
2020/12/03 08:53:30;;;;;;;54.67;21.43;;;0.10;99.90;;;;;;4988706;28;20392;-67
2020/12/03 08:56:24;;;;;;;62.73;22.90;;;0.20;99.90;;;;;;4989426;28;20053;-67
2020/12/03 08:59:03;;;;;;;57.77;23.00;;;0.20;99.90;;;;;;4988902;28;20053;-67
2020/12/03 09:01:32;;;;;;;59.63;23.13;;;0.20;99.90;;;;;;4988636;28;20434;-66
2020/12/03 09:04:03;;;;;;;57.30;22.73;;;0.20;99.90;;;;;;4979505;28;20086;-65
2020/12/03 09:06:31;;;;;;;58.30;22.00;;;0.20;99.90;;;;;;4989644;28;20050;-66
2020/12/03 09:08:59;;;;;;;54.47;22.73;;;0.30;99.90;;;;;;4989137;28;20057;-65
2020/12/03 09:11:26;;;;;;;54.23;21.93;;;0.30;99.90;;;;;;4987872;28;20050;-65
2020/12/03 09:13:56;;;;;;;51.97;19.77;;;0.20;99.90;;;;;;4988759;28;20529;-65
2020/12/03 09:16:26;;;;;;;56.83;22.90;;;0.20;99.90;;;;;;4987946;28;20050;-65
2020/12/03 09:18:53;;;;;;;58.57;23.57;;;0.20;99.90;;;;;;4994762;28;20050;-65
2020/12/03 09:21:26;;;;;;;50.57;21.47;;;0.20;99.90;;;;;;4986153;28;20051;-65
2020/12/03 09:23:55;;;;;;;57.10;22.23;;;0.40;99.90;;;;;;4979081;28;20056;-64
2020/12/03 09:26:27;;;;;;;57.07;21.50;;;0.50;99.90;;;;;;4992797;28;20054;-63
2020/12/03 09:28:55;;;;;;;55.17;21.30;;;0.50;99.90;;;;;;4992283;28;20135;-65
2020/12/03 09:31:23;;;;;;;54.33;21.87;;;0.50;99.90;;;;;;4992170;28;20093;-67
2020/12/03 09:33:51;;;;;;;54.20;21.07;;;0.50;99.90;;;;;;4992436;28;20062;-70
2020/12/03 09:36:19;;;;;;;55.13;21.37;;;0.50;99.90;;;;;;4992641;28;20050;-67
2020/12/03 09:38:51;;;;;;;49.37;20.47;;;0.60;99.90;;;;;;4992140;28;20466;-67
2020/12/03 09:41:21;;;;;;;49.47;20.57;;;0.50;99.90;;;;;;4992589;28;20061;-67
2020/12/03 09:43:50;;;;;;;56.63;21.47;;;0.50;99.90;;;;;;4993880;28;20109;-70
2020/12/03 09:46:22;;;;;;;55.03;21.90;;;0.70;99.90;;;;;;4996833;28;20077;-69
2020/12/03 09:49:00;;;;;;;48.97;19.50;;;0.70;99.90;;;;;;5002933;28;20060;-68
2020/12/03 09:51:28;;;;;;;48.00;18.60;;;0.60;99.90;;;;;;4997544;28;20550;-68
2020/12/03 09:54:02;;;;;;;52.07;20.07;;;0.60;99.90;;;;;;4993435;28;20061;-68
2020/12/03 09:56:34;;;;;;;49.43;19.13;;;0.50;99.90;;;;;;4992237;28;20072;-65
2020/12/03 09:59:03;;;;;;;44.10;19.47;;;0.40;99.90;;;;;;4992605;28;20054;-63
2020/12/03 10:01:53;;;;;;;45.80;19.03;;;0.50;99.90;;;;;;4989896;28;20058;-69
2020/12/03 10:04:54;;;;;;;51.37;20.83;;;0.50;99.90;;;;;;4985684;28;20059;-66
2020/12/03 10:07:34;;;;;;;51.40;20.57;;;0.60;99.90;;;;;;4984886;28;20042;-66
2020/12/03 10:10:13;;;;;;;50.10;19.03;;;0.70;99.90;;;;;;4983254;28;20053;-66
2020/12/03 10:13:03;;;;;;;48.93;19.90;;;0.60;99.90;;;;;;4983074;28;20453;-66
2020/12/03 10:15:56;;;;;;;53.63;19.47;;;0.60;99.90;;;;;;4985299;28;20054;-65
2020/12/03 10:18:24;;;;;;;52.37;20.03;;;0.60;99.90;;;;;;4985209;28;20051;-65
2020/12/03 10:20:52;;;;;;;50.30;19.90;;;0.50;99.90;;;;;;4982490;28;20138;-65
2020/12/03 10:23:37;;;;;;;48.07;17.93;;;0.50;99.90;;;;;;4989719;28;20761;-64
2020/12/03 10:26:45;;;;;;;52.57;21.33;;;0.60;99.90;;;;;;4981791;28;20059;-65
2020/12/03 10:29:39;;;;;;;52.60;20.25;;;0.60;99.90;;;;;;4968204;28;20134;-65
2020/12/03 10:32:11;;;;;;;54.77;19.57;;;0.60;99.90;;;;;;4985269;28;20061;-65
2020/12/03 10:34:44;;;;;;;53.03;19.03;;;0.60;99.90;;;;;;4985579;28;20112;-64
2020/12/03 10:37:21;;;;;;;54.87;20.33;;;0.60;99.90;;;;;;4982463;28;20054;-64
2020/12/03 10:39:52;;;;;;;51.07;20.57;;;0.60;99.90;;;;;;4984998;28;20145;-65
2020/12/03 10:42:22;;;;;;;50.57;20.43;;;0.60;99.90;;;;;;4983930;28;20122;-64
2020/12/03 10:44:55;;;;;;;53.73;20.53;;;0.60;99.90;;;;;;4983025;28;20121;-63
2020/12/03 10:47:23;;;;;;;49.87;18.60;;;0.60;99.90;;;;;;4984952;28;20450;-67
2020/12/03 10:49:50;;;;;;;37.40;16.60;;;0.70;99.90;;;;;;4986265;28;20050;-65
2020/12/03 10:52:27;;;;;;;50.50;19.63;;;0.60;99.90;;;;;;4978418;28;20061;-66
2020/12/03 10:54:58;;;;;;;;;;;0.60;99.90;;;;;;4984682;28;20043;-66
2020/12/03 10:57:26;;;;;;;54.20;19.47;;;0.70;99.90;;;;;;4990075;28;19921;-67
2020/12/03 10:59:55;;;;;;;44.57;18.67;;;0.60;99.90;;;;;;4988791;28;20069;-69
2020/12/03 11:02:32;;;;;;;49.77;19.07;;;0.60;99.90;;;;;;4988613;28;20387;-69
2020/12/03 11:04:59;;;;;;;;;;;0.80;99.90;;;;;;4989638;28;20491;-69
2020/12/03 11:07:26;;;;;;;50.17;19.70;;;0.70;99.90;;;;;;4988263;28;19921;-68
2020/12/03 11:09:54;;;;;;;50.80;19.73;;;0.80;99.90;;;;;;4988661;28;20069;-68
2020/12/03 11:12:22;;;;;;;50.10;18.67;;;0.80;99.90;;;;;;4988705;28;20144;-68
2020/12/03 11:14:49;;;;;;;45.70;18.77;;;0.80;99.90;;;;;;4991087;28;20065;-68
2020/12/03 11:18:07;;;;;;;52.33;20.20;;;0.80;99.90;;;;;;4991884;28;20050;-67
2020/12/03 11:20:37;;;;;;;51.60;19.05;;;0.90;99.90;;;;;;4992504;28;20046;-69
2020/12/03 11:23:14;;;;;;;45.67;19.73;;;0.90;99.90;;;;;;4992347;28;20046;-69
2020/12/03 11:25:41;;;;;;;40.97;14.55;;;0.90;99.90;;;;;;4992558;28;20058;-68
2020/12/03 11:28:19;;;;;;;46.27;18.37;;;0.90;99.90;;;;;;4991877;28;20093;-69
2020/12/03 11:30:55;;;;;;;44.67;18.00;;;0.90;99.90;;;;;;4992159;28;20054;-68
2020/12/03 11:33:26;;;;;;;52.17;18.08;;;0.90;99.90;;;;;;4992612;28;20487;-68
2020/12/03 11:36:03;;;;;;;49.43;18.13;;;0.90;99.90;;;;;;4994292;28;20442;-68
2020/12/03 11:38:31;;;;;;;47.10;18.02;;;0.80;99.90;;;;;;4991990;28;20050;-68
2020/12/03 11:41:01;;;;;;;48.77;18.90;;;0.80;99.90;;;;;;4990751;28;20137;-68
2020/12/03 11:44:01;;;;;;;51.80;18.93;;;0.70;99.90;;;;;;4992457;28;20100;-68
2020/12/03 11:49:13;;;;;;;41.83;16.23;;;0.90;99.90;;;;;;4992108;28;20057;-67
2020/12/03 11:51:40;;;;;;;45.77;17.57;;;0.90;99.90;;;;;;4991824;28;20124;-68
2020/12/03 11:54:08;;;;;;;34.63;14.03;;;0.80;99.90;;;;;;4992287;28;20055;-68
2020/12/03 11:56:37;;;;;;;45.57;16.80;;;0.60;99.90;;;;;;4991210;28;20073;-67
2020/12/03 11:59:17;;;;;;;50.43;19.17;;;0.70;99.90;;;;;;4992032;28;20073;-69
2020/12/03 12:01:53;;;;;;;51.77;17.37;;;0.70;99.90;;;;;;4991047;28;20058;-69
2020/12/03 12:04:25;;;;;;;42.03;15.48;;;0.70;99.90;;;;;;4992355;28;20058;-67
2020/12/03 12:09:41;;;;;;;53.87;19.10;;;0.60;99.90;;;;;;4990644;28;20046;-68
2020/12/03 12:12:07;;;;;;;47.97;18.13;;;0.60;99.90;;;;;;4992044;28;20058;-69
2020/12/03 12:14:34;;;;;;;48.63;18.80;;;0.70;99.90;;;;;;4991194;28;20056;-67
2020/12/03 12:17:01;;;;;;;50.80;17.70;;;0.70;99.90;;;;;;4991791;28;20050;-67
2020/12/03 12:19:29;;;;;;;50.13;17.83;;;0.80;99.90;;;;;;4991294;28;20050;-69
2020/12/03 12:21:57;;;;;;;48.97;18.23;;;0.80;99.90;;;;;;4991491;28;20058;-68
2020/12/03 12:24:24;;;;;;;46.03;17.13;;;0.80;99.90;;;;;;4991061;28;20081;-69
2020/12/03 12:26:51;;;;;;;49.17;18.77;;;0.70;99.90;;;;;;4991936;28;20061;-68
2020/12/03 12:29:17;;;;;;;45.13;15.80;;;0.70;99.90;;;;;;4985179;28;20075;-67
2020/12/03 12:31:44;;;;;;;44.13;17.13;;;0.60;99.90;;;;;;4981401;28;20380;-69
2020/12/03 12:34:10;;;;;;;53.60;20.00;;;0.60;99.90;;;;;;4982469;28;20039;-68
2020/12/03 12:36:38;;;;;;;46.13;15.97;;;0.60;99.90;;;;;;4984256;28;20051;-68
2020/12/03 12:39:05;;;;;;;48.13;19.40;;;0.70;99.90;;;;;;4991078;28;20097;-67
2020/12/03 12:41:31;;;;;;;52.43;20.23;;;0.70;99.90;;;;;;4990083;28;20098;-67
2020/12/03 12:43:58;;;;;;;52.27;18.43;;;0.70;99.90;;;;;;4988076;28;20341;-67
2020/12/03 12:46:25;;;;;;;50.27;18.10;;;0.80;99.90;;;;;;4980608;28;20046;-68
2020/12/03 12:48:53;;;;;;;47.67;18.80;;;0.70;99.90;;;;;;4970897;28;20058;-67
2020/12/03 12:51:20;;;;;;;50.23;17.27;;;0.70;99.90;;;;;;4973859;28;20059;-67
2020/12/03 12:53:47;;;;;;;49.90;18.47;;;0.70;99.90;;;;;;4983504;28;20112;-69
2020/12/03 12:56:14;;;;;;;48.60;18.27;;;0.80;99.90;;;;;;4979297;28;20446;-67
2020/12/03 12:58:41;;;;;;;51.73;18.03;;;0.80;99.90;;;;;;4978228;28;20086;-67
2020/12/03 13:01:08;;;;;;;56.30;18.97;;;0.80;99.90;;;;;;4988907;28;20553;-68
2020/12/03 13:03:35;;;;;;;54.70;20.73;;;0.80;99.90;;;;;;4989448;28;20436;-68
2020/12/03 13:06:01;;;;;;;49.83;17.73;;;0.90;99.90;;;;;;4990182;28;20054;-67
2020/12/03 13:08:28;;;;;;;55.03;19.80;;;0.90;99.90;;;;;;4990827;28;20056;-67
2020/12/03 13:10:55;;;;;;;52.43;20.20;;;0.90;99.90;;;;;;4982077;28;20333;-67
2020/12/03 13:13:28;;;;;;;51.70;18.40;;;0.90;99.90;;;;;;4978403;28;20061;-67